sensor_id;sensor_type;location;lat;lon;timestamp;P1;durP1;ratioP1;P2;durP2;ratioP2
10823;SDS011;39116;59.332;18.034;2023-08-30T00:01:30;5.28;;;2.97;;
10823;SDS011;39116;59.332;18.034;2023-08-30T00:03:52;4.30;;;2.30;;
10823;SDS011;39116;59.332;18.034;2023-08-30T00:06:14;5.47;;;2.67;;
10823;SDS011;39116;59.332;18.034;2023-08-30T00:08:38;4.07;;;2.50;;
10823;SDS011;39116;59.332;18.034;2023-08-30T00:11:00;3.92;;;2.35;;
10823;SDS011;39116;59.332;18.034;2023-08-30T00:13:23;4.13;;;2.58;;
10823;SDS011;39116;59.332;18.034;2023-08-30T00:15:45;5.05;;;2.55;;
10823;SDS011;39116;59.332;18.034;2023-08-30T00:18:06;5.05;;;2.90;;
10823;SDS011;39116;59.332;18.034;2023-08-30T00:20:29;3.35;;;2.53;;
10823;SDS011;39116;59.332;18.034;2023-08-30T00:22:51;4.47;;;2.33;;
10823;SDS011;39116;59.332;18.034;2023-08-30T00:25:14;3.95;;;2.60;;
10823;SDS011;39116;59.332;18.034;2023-08-30T00:27:36;6.15;;;2.90;;
10823;SDS011;39116;59.332;18.034;2023-08-30T00:29:58;5.57;;;2.78;;
10823;SDS011;39116;59.332;18.034;2023-08-30T00:32:20;4.20;;;2.80;;
10823;SDS011;39116;59.332;18.034;2023-08-30T00:34:42;6.10;;;2.47;;
10823;SDS011;39116;59.332;18.034;2023-08-30T00:37:04;4.25;;;2.80;;
10823;SDS011;39116;59.332;18.034;2023-08-30T00:39:26;2.97;;;2.22;;
10823;SDS011;39116;59.332;18.034;2023-08-30T00:41:49;3.70;;;2.38;;
10823;SDS011;39116;59.332;18.034;2023-08-30T00:44:11;3.50;;;2.40;;
10823;SDS011;39116;59.332;18.034;2023-08-30T00:46:33;6.85;;;2.75;;
10823;SDS011;39116;59.332;18.034;2023-08-30T00:48:55;2.50;;;2.20;;
10823;SDS011;39116;59.332;18.034;2023-08-30T00:51:17;4.25;;;2.67;;
10823;SDS011;39116;59.332;18.034;2023-08-30T00:53:40;3.22;;;2.40;;
10823;SDS011;39116;59.332;18.034;2023-08-30T00:56:02;4.72;;;2.35;;
10823;SDS011;39116;59.332;18.034;2023-08-30T00:58:25;3.38;;;2.47;;
10823;SDS011;39116;59.332;18.034;2023-08-30T01:00:47;3.38;;;2.40;;
10823;SDS011;39116;59.332;18.034;2023-08-30T01:03:10;5.55;;;2.58;;
10823;SDS011;39116;59.332;18.034;2023-08-30T01:05:32;5.95;;;2.35;;
10823;SDS011;39116;59.332;18.034;2023-08-30T01:07:54;4.05;;;2.30;;
10823;SDS011;39116;59.332;18.034;2023-08-30T01:10:16;3.38;;;2.22;;
10823;SDS011;39116;59.332;18.034;2023-08-30T01:12:39;3.72;;;2.30;;
10823;SDS011;39116;59.332;18.034;2023-08-30T01:15:08;3.65;;;2.10;;
10823;SDS011;39116;59.332;18.034;2023-08-30T01:17:32;3.15;;;2.10;;
10823;SDS011;39116;59.332;18.034;2023-08-30T01:19:56;3.58;;;2.30;;
10823;SDS011;39116;59.332;18.034;2023-08-30T01:22:29;5.35;;;2.10;;
10823;SDS011;39116;59.332;18.034;2023-08-30T01:25:06;5.97;;;1.85;;
10823;SDS011;39116;59.332;18.034;2023-08-30T01:27:38;3.47;;;2.03;;
10823;SDS011;39116;59.332;18.034;2023-08-30T01:30:02;3.20;;;2.10;;
10823;SDS011;39116;59.332;18.034;2023-08-30T01:32:28;4.15;;;2.15;;
10823;SDS011;39116;59.332;18.034;2023-08-30T01:34:51;3.10;;;2.10;;
10823;SDS011;39116;59.332;18.034;2023-08-30T01:37:13;5.72;;;2.30;;
10823;SDS011;39116;59.332;18.034;2023-08-30T01:39:36;3.83;;;2.67;;
10823;SDS011;39116;59.332;18.034;2023-08-30T01:42:00;4.50;;;2.30;;
10823;SDS011;39116;59.332;18.034;2023-08-30T01:44:25;3.38;;;2.70;;
10823;SDS011;39116;59.332;18.034;2023-08-30T01:46:49;4.00;;;2.38;;
10823;SDS011;39116;59.332;18.034;2023-08-30T01:49:11;6.10;;;3.03;;
10823;SDS011;39116;59.332;18.034;2023-08-30T01:51:34;4.22;;;2.67;;
10823;SDS011;39116;59.332;18.034;2023-08-30T01:53:56;5.93;;;2.97;;
10823;SDS011;39116;59.332;18.034;2023-08-30T01:56:19;5.50;;;2.97;;
10823;SDS011;39116;59.332;18.034;2023-08-30T01:58:41;4.90;;;3.70;;
10823;SDS011;39116;59.332;18.034;2023-08-30T02:01:04;4.80;;;4.07;;
10823;SDS011;39116;59.332;18.034;2023-08-30T02:03:26;6.65;;;3.78;;
10823;SDS011;39116;59.332;18.034;2023-08-30T02:05:52;6.38;;;3.63;;
10823;SDS011;39116;59.332;18.034;2023-08-30T02:08:22;8.30;;;4.35;;
10823;SDS011;39116;59.332;18.034;2023-08-30T02:10:52;9.30;;;4.70;;
10823;SDS011;39116;59.332;18.034;2023-08-30T02:13:18;4.88;;;3.97;;
10823;SDS011;39116;59.332;18.034;2023-08-30T02:15:46;7.28;;;4.05;;
10823;SDS011;39116;59.332;18.034;2023-08-30T02:18:11;6.05;;;4.40;;
10823;SDS011;39116;59.332;18.034;2023-08-30T02:20:33;5.50;;;3.92;;
10823;SDS011;39116;59.332;18.034;2023-08-30T02:22:57;6.05;;;4.13;;
10823;SDS011;39116;59.332;18.034;2023-08-30T02:25:20;6.90;;;3.92;;
10823;SDS011;39116;59.332;18.034;2023-08-30T02:27:44;6.45;;;4.28;;
10823;SDS011;39116;59.332;18.034;2023-08-30T02:30:06;6.20;;;4.30;;
10823;SDS011;39116;59.332;18.034;2023-08-30T02:32:28;8.35;;;4.40;;
10823;SDS011;39116;59.332;18.034;2023-08-30T02:34:52;7.93;;;4.25;;
10823;SDS011;39116;59.332;18.034;2023-08-30T02:37:14;5.72;;;4.30;;
10823;SDS011;39116;59.332;18.034;2023-08-30T02:39:35;5.10;;;3.97;;
10823;SDS011;39116;59.332;18.034;2023-08-30T02:41:57;6.22;;;3.60;;
10823;SDS011;39116;59.332;18.034;2023-08-30T02:44:19;5.32;;;3.72;;
10823;SDS011;39116;59.332;18.034;2023-08-30T02:46:41;6.43;;;4.03;;
10823;SDS011;39116;59.332;18.034;2023-08-30T02:49:03;5.88;;;3.55;;
10823;SDS011;39116;59.332;18.034;2023-08-30T02:51:26;5.32;;;4.00;;
10823;SDS011;39116;59.332;18.034;2023-08-30T02:53:48;6.40;;;4.32;;
10823;SDS011;39116;59.332;18.034;2023-08-30T02:56:10;4.32;;;3.90;;
10823;SDS011;39116;59.332;18.034;2023-08-30T02:58:32;6.43;;;3.88;;
10823;SDS011;39116;59.332;18.034;2023-08-30T03:00:54;6.55;;;3.90;;
10823;SDS011;39116;59.332;18.034;2023-08-30T03:03:16;5.85;;;3.83;;
10823;SDS011;39116;59.332;18.034;2023-08-30T03:05:38;4.18;;;3.78;;
10823;SDS011;39116;59.332;18.034;2023-08-30T03:08:01;7.22;;;4.72;;
10823;SDS011;39116;59.332;18.034;2023-08-30T03:10:24;9.35;;;4.47;;
10823;SDS011;39116;59.332;18.034;2023-08-30T03:12:46;7.80;;;3.85;;
10823;SDS011;39116;59.332;18.034;2023-08-30T03:15:08;6.28;;;3.90;;
10823;SDS011;39116;59.332;18.034;2023-08-30T03:17:30;8.55;;;3.92;;
10823;SDS011;39116;59.332;18.034;2023-08-30T03:19:52;4.30;;;3.58;;
10823;SDS011;39116;59.332;18.034;2023-08-30T03:22:14;4.90;;;3.88;;
10823;SDS011;39116;59.332;18.034;2023-08-30T03:24:37;5.13;;;3.33;;
10823;SDS011;39116;59.332;18.034;2023-08-30T03:26:59;5.97;;;3.45;;
10823;SDS011;39116;59.332;18.034;2023-08-30T03:29:21;5.80;;;3.50;;
10823;SDS011;39116;59.332;18.034;2023-08-30T03:31:43;4.57;;;3.33;;
10823;SDS011;39116;59.332;18.034;2023-08-30T03:34:05;3.42;;;3.13;;
10823;SDS011;39116;59.332;18.034;2023-08-30T03:36:27;3.35;;;2.97;;
10823;SDS011;39116;59.332;18.034;2023-08-30T03:38:49;4.97;;;3.20;;
10823;SDS011;39116;59.332;18.034;2023-08-30T03:41:12;3.28;;;2.72;;
10823;SDS011;39116;59.332;18.034;2023-08-30T03:43:35;4.97;;;3.03;;
10823;SDS011;39116;59.332;18.034;2023-08-30T03:45:57;4.55;;;3.40;;
10823;SDS011;39116;59.332;18.034;2023-08-30T03:48:19;6.70;;;3.10;;
10823;SDS011;39116;59.332;18.034;2023-08-30T03:50:41;7.43;;;3.30;;
10823;SDS011;39116;59.332;18.034;2023-08-30T03:53:03;3.83;;;2.97;;
10823;SDS011;39116;59.332;18.034;2023-08-30T03:55:25;5.10;;;3.15;;
10823;SDS011;39116;59.332;18.034;2023-08-30T03:57:48;5.72;;;3.50;;
10823;SDS011;39116;59.332;18.034;2023-08-30T04:00:11;4.60;;;3.40;;
10823;SDS011;39116;59.332;18.034;2023-08-30T04:02:33;7.25;;;3.70;;
10823;SDS011;39116;59.332;18.034;2023-08-30T04:04:55;5.68;;;3.63;;
10823;SDS011;39116;59.332;18.034;2023-08-30T04:07:17;7.35;;;4.10;;
10823;SDS011;39116;59.332;18.034;2023-08-30T04:09:39;5.95;;;4.20;;
10823;SDS011;39116;59.332;18.034;2023-08-30T04:12:00;8.60;;;4.50;;
10823;SDS011;39116;59.332;18.034;2023-08-30T04:14:26;5.85;;;3.88;;
10823;SDS011;39116;59.332;18.034;2023-08-30T04:16:48;6.65;;;3.95;;
10823;SDS011;39116;59.332;18.034;2023-08-30T04:19:10;7.97;;;3.83;;
10823;SDS011;39116;59.332;18.034;2023-08-30T04:21:32;5.68;;;4.10;;
10823;SDS011;39116;59.332;18.034;2023-08-30T04:23:54;6.25;;;4.18;;
10823;SDS011;39116;59.332;18.034;2023-08-30T04:26:15;6.65;;;4.20;;
10823;SDS011;39116;59.332;18.034;2023-08-30T04:28:37;5.35;;;3.95;;
10823;SDS011;39116;59.332;18.034;2023-08-30T04:31:01;6.40;;;3.95;;
10823;SDS011;39116;59.332;18.034;2023-08-30T04:33:23;7.60;;;3.83;;
10823;SDS011;39116;59.332;18.034;2023-08-30T04:35:49;3.90;;;3.30;;
10823;SDS011;39116;59.332;18.034;2023-08-30T04:38:12;5.57;;;3.95;;
10823;SDS011;39116;59.332;18.034;2023-08-30T04:40:33;4.18;;;3.53;;
10823;SDS011;39116;59.332;18.034;2023-08-30T04:42:55;5.28;;;3.97;;
10823;SDS011;39116;59.332;18.034;2023-08-30T04:45:17;4.75;;;3.70;;
10823;SDS011;39116;59.332;18.034;2023-08-30T04:47:41;8.43;;;3.72;;
10823;SDS011;39116;59.332;18.034;2023-08-30T04:50:06;5.00;;;3.47;;
10823;SDS011;39116;59.332;18.034;2023-08-30T04:52:28;4.85;;;3.70;;
10823;SDS011;39116;59.332;18.034;2023-08-30T04:54:50;6.07;;;4.20;;
10823;SDS011;39116;59.332;18.034;2023-08-30T04:57:12;6.03;;;3.92;;
10823;SDS011;39116;59.332;18.034;2023-08-30T04:59:34;6.43;;;3.80;;
10823;SDS011;39116;59.332;18.034;2023-08-30T05:01:56;6.78;;;4.05;;
10823;SDS011;39116;59.332;18.034;2023-08-30T05:04:19;4.93;;;3.88;;
10823;SDS011;39116;59.332;18.034;2023-08-30T05:06:41;6.85;;;3.80;;
10823;SDS011;39116;59.332;18.034;2023-08-30T05:09:03;5.32;;;3.40;;
10823;SDS011;39116;59.332;18.034;2023-08-30T05:11:25;5.28;;;3.97;;
10823;SDS011;39116;59.332;18.034;2023-08-30T05:13:47;6.45;;;3.30;;
10823;SDS011;39116;59.332;18.034;2023-08-30T05:16:09;3.60;;;3.30;;
10823;SDS011;39116;59.332;18.034;2023-08-30T05:18:31;4.47;;;3.30;;
10823;SDS011;39116;59.332;18.034;2023-08-30T05:20:54;4.35;;;3.28;;
10823;SDS011;39116;59.332;18.034;2023-08-30T05:23:16;6.30;;;3.40;;
10823;SDS011;39116;59.332;18.034;2023-08-30T05:25:38;5.60;;;3.55;;
10823;SDS011;39116;59.332;18.034;2023-08-30T05:28:00;5.60;;;3.83;;
10823;SDS011;39116;59.332;18.034;2023-08-30T05:30:21;4.53;;;3.63;;
10823;SDS011;39116;59.332;18.034;2023-08-30T05:32:43;7.55;;;3.63;;
10823;SDS011;39116;59.332;18.034;2023-08-30T05:35:06;5.63;;;3.60;;
10823;SDS011;39116;59.332;18.034;2023-08-30T05:37:30;3.95;;;3.53;;
10823;SDS011;39116;59.332;18.034;2023-08-30T05:39:52;5.93;;;3.83;;
10823;SDS011;39116;59.332;18.034;2023-08-30T05:42:14;5.43;;;4.00;;
10823;SDS011;39116;59.332;18.034;2023-08-30T05:44:36;4.40;;;4.00;;
10823;SDS011;39116;59.332;18.034;2023-08-30T05:46:58;5.07;;;3.72;;
10823;SDS011;39116;59.332;18.034;2023-08-30T05:49:19;7.28;;;4.50;;
10823;SDS011;39116;59.332;18.034;2023-08-30T05:51:41;8.00;;;4.03;;
10823;SDS011;39116;59.332;18.034;2023-08-30T05:54:05;6.10;;;4.30;;
10823;SDS011;39116;59.332;18.034;2023-08-30T05:56:27;6.72;;;4.30;;
10823;SDS011;39116;59.332;18.034;2023-08-30T05:58:49;6.68;;;4.65;;
10823;SDS011;39116;59.332;18.034;2023-08-30T06:01:11;6.18;;;4.30;;
10823;SDS011;39116;59.332;18.034;2023-08-30T06:03:33;5.93;;;3.95;;
10823;SDS011;39116;59.332;18.034;2023-08-30T06:05:55;4.88;;;3.80;;
10823;SDS011;39116;59.332;18.034;2023-08-30T06:08:17;4.55;;;3.65;;
10823;SDS011;39116;59.332;18.034;2023-08-30T06:10:40;5.43;;;3.97;;
10823;SDS011;39116;59.332;18.034;2023-08-30T06:13:02;6.63;;;3.92;;
10823;SDS011;39116;59.332;18.034;2023-08-30T06:15:24;4.88;;;4.10;;
10823;SDS011;39116;59.332;18.034;2023-08-30T06:17:46;5.28;;;3.97;;
10823;SDS011;39116;59.332;18.034;2023-08-30T06:20:08;6.22;;;3.88;;
10823;SDS011;39116;59.332;18.034;2023-08-30T06:22:31;5.05;;;3.70;;
10823;SDS011;39116;59.332;18.034;2023-08-30T06:24:53;7.32;;;3.53;;
10823;SDS011;39116;59.332;18.034;2023-08-30T06:27:16;4.38;;;3.17;;
10823;SDS011;39116;59.332;18.034;2023-08-30T06:29:38;5.93;;;3.20;;
10823;SDS011;39116;59.332;18.034;2023-08-30T06:32:00;3.15;;;2.75;;
10823;SDS011;39116;59.332;18.034;2023-08-30T06:34:22;4.70;;;3.60;;
10823;SDS011;39116;59.332;18.034;2023-08-30T06:36:44;5.63;;;3.30;;
10823;SDS011;39116;59.332;18.034;2023-08-30T06:39:07;3.58;;;3.13;;
10823;SDS011;39116;59.332;18.034;2023-08-30T06:41:29;4.65;;;3.15;;
10823;SDS011;39116;59.332;18.034;2023-08-30T06:43:52;4.57;;;3.45;;
10823;SDS011;39116;59.332;18.034;2023-08-30T06:46:14;3.72;;;3.03;;
10823;SDS011;39116;59.332;18.034;2023-08-30T06:48:36;4.93;;;3.35;;
10823;SDS011;39116;59.332;18.034;2023-08-30T06:50:58;4.75;;;3.22;;
10823;SDS011;39116;59.332;18.034;2023-08-30T06:53:20;6.70;;;3.20;;
10823;SDS011;39116;59.332;18.034;2023-08-30T06:55:41;5.22;;;3.30;;
10823;SDS011;39116;59.332;18.034;2023-08-30T06:58:04;3.83;;;3.42;;
10823;SDS011;39116;59.332;18.034;2023-08-30T07:00:28;5.35;;;3.60;;
10823;SDS011;39116;59.332;18.034;2023-08-30T07:02:49;5.50;;;3.50;;
10823;SDS011;39116;59.332;18.034;2023-08-30T07:05:11;4.22;;;2.88;;
10823;SDS011;39116;59.332;18.034;2023-08-30T07:07:33;3.97;;;3.20;;
10823;SDS011;39116;59.332;18.034;2023-08-30T07:09:55;4.05;;;2.75;;
10823;SDS011;39116;59.332;18.034;2023-08-30T07:12:17;5.28;;;3.20;;
10823;SDS011;39116;59.332;18.034;2023-08-30T07:14:39;4.25;;;2.88;;
10823;SDS011;39116;59.332;18.034;2023-08-30T07:17:03;6.00;;;2.92;;
10823;SDS011;39116;59.332;18.034;2023-08-30T07:19:25;3.80;;;2.90;;
10823;SDS011;39116;59.332;18.034;2023-08-30T07:21:47;4.35;;;3.00;;
10823;SDS011;39116;59.332;18.034;2023-08-30T07:24:09;5.90;;;3.05;;
10823;SDS011;39116;59.332;18.034;2023-08-30T07:26:30;4.82;;;3.10;;
10823;SDS011;39116;59.332;18.034;2023-08-30T07:28:52;3.83;;;3.33;;
10823;SDS011;39116;59.332;18.034;2023-08-30T07:31:14;4.22;;;3.10;;
10823;SDS011;39116;59.332;18.034;2023-08-30T07:33:39;6.10;;;3.00;;
10823;SDS011;39116;59.332;18.034;2023-08-30T07:36:01;5.75;;;3.35;;
10823;SDS011;39116;59.332;18.034;2023-08-30T07:38:24;4.82;;;2.90;;
10823;SDS011;39116;59.332;18.034;2023-08-30T07:40:46;5.05;;;2.70;;
10823;SDS011;39116;59.332;18.034;2023-08-30T07:43:08;4.20;;;3.00;;
10823;SDS011;39116;59.332;18.034;2023-08-30T07:45:30;6.82;;;3.05;;
10823;SDS011;39116;59.332;18.034;2023-08-30T07:47:52;2.88;;;2.60;;
10823;SDS011;39116;59.332;18.034;2023-08-30T07:50:15;3.00;;;2.70;;
10823;SDS011;39116;59.332;18.034;2023-08-30T07:52:37;3.47;;;2.45;;
10823;SDS011;39116;59.332;18.034;2023-08-30T07:54:59;3.10;;;2.60;;
10823;SDS011;39116;59.332;18.034;2023-08-30T07:57:22;3.97;;;2.70;;
10823;SDS011;39116;59.332;18.034;2023-08-30T07:59:44;3.97;;;2.25;;
10823;SDS011;39116;59.332;18.034;2023-08-30T08:02:06;3.88;;;2.72;;
10823;SDS011;39116;59.332;18.034;2023-08-30T08:04:28;3.63;;;2.63;;
10823;SDS011;39116;59.332;18.034;2023-08-30T08:06:51;2.45;;;2.03;;
10823;SDS011;39116;59.332;18.034;2023-08-30T08:09:13;5.60;;;2.53;;
10823;SDS011;39116;59.332;18.034;2023-08-30T08:11:35;4.38;;;2.58;;
10823;SDS011;39116;59.332;18.034;2023-08-30T08:13:57;3.92;;;2.70;;
10823;SDS011;39116;59.332;18.034;2023-08-30T08:16:19;5.22;;;2.35;;
10823;SDS011;39116;59.332;18.034;2023-08-30T08:18:41;3.67;;;2.47;;
10823;SDS011;39116;59.332;18.034;2023-08-30T08:21:03;3.08;;;2.30;;
10823;SDS011;39116;59.332;18.034;2023-08-30T08:23:26;2.53;;;2.03;;
10823;SDS011;39116;59.332;18.034;2023-08-30T08:25:48;2.03;;;1.90;;
10823;SDS011;39116;59.332;18.034;2023-08-30T08:28:10;3.47;;;1.90;;
10823;SDS011;39116;59.332;18.034;2023-08-30T08:30:32;3.55;;;2.33;;
10823;SDS011;39116;59.332;18.034;2023-08-30T08:32:55;3.95;;;2.53;;
10823;SDS011;39116;59.332;18.034;2023-08-30T08:35:19;4.70;;;2.65;;
10823;SDS011;39116;59.332;18.034;2023-08-30T08:37:40;4.72;;;2.40;;
10823;SDS011;39116;59.332;18.034;2023-08-30T08:40:04;6.78;;;2.67;;
10823;SDS011;39116;59.332;18.034;2023-08-30T08:42:28;7.10;;;2.28;;
10823;SDS011;39116;59.332;18.034;2023-08-30T08:44:51;6.03;;;3.10;;
10823;SDS011;39116;59.332;18.034;2023-08-30T08:47:15;3.10;;;2.00;;
10823;SDS011;39116;59.332;18.034;2023-08-30T08:49:37;2.92;;;2.25;;
10823;SDS011;39116;59.332;18.034;2023-08-30T08:52:00;6.03;;;2.20;;
10823;SDS011;39116;59.332;18.034;2023-08-30T08:54:23;3.00;;;1.92;;
10823;SDS011;39116;59.332;18.034;2023-08-30T08:56:47;4.40;;;2.20;;
10823;SDS011;39116;59.332;18.034;2023-08-30T08:59:10;2.78;;;2.13;;
10823;SDS011;39116;59.332;18.034;2023-08-30T09:01:32;3.95;;;1.98;;
10823;SDS011;39116;59.332;18.034;2023-08-30T09:03:55;2.90;;;1.92;;
10823;SDS011;39116;59.332;18.034;2023-08-30T09:06:18;3.35;;;2.03;;
10823;SDS011;39116;59.332;18.034;2023-08-30T09:08:40;4.10;;;2.95;;
10823;SDS011;39116;59.332;18.034;2023-08-30T09:11:02;4.57;;;2.30;;
10823;SDS011;39116;59.332;18.034;2023-08-30T09:13:25;2.50;;;1.88;;
10823;SDS011;39116;59.332;18.034;2023-08-30T09:15:47;4.38;;;2.70;;
10823;SDS011;39116;59.332;18.034;2023-08-30T09:18:14;3.55;;;2.20;;
10823;SDS011;39116;59.332;18.034;2023-08-30T09:20:37;2.40;;;2.20;;
10823;SDS011;39116;59.332;18.034;2023-08-30T09:22:59;3.90;;;2.83;;
10823;SDS011;39116;59.332;18.034;2023-08-30T09:25:24;3.55;;;2.90;;
10823;SDS011;39116;59.332;18.034;2023-08-30T09:27:46;9.35;;;4.65;;
10823;SDS011;39116;59.332;18.034;2023-08-30T09:30:10;3.53;;;2.85;;
10823;SDS011;39116;59.332;18.034;2023-08-30T09:32:37;4.05;;;2.40;;
10823;SDS011;39116;59.332;18.034;2023-08-30T09:35:00;3.85;;;2.53;;
10823;SDS011;39116;59.332;18.034;2023-08-30T09:37:25;3.90;;;2.15;;
10823;SDS011;39116;59.332;18.034;2023-08-30T09:39:50;2.58;;;2.03;;
10823;SDS011;39116;59.332;18.034;2023-08-30T09:42:13;2.53;;;2.33;;
10823;SDS011;39116;59.332;18.034;2023-08-30T09:44:38;3.38;;;2.20;;
10823;SDS011;39116;59.332;18.034;2023-08-30T09:47:02;4.72;;;3.30;;
10823;SDS011;39116;59.332;18.034;2023-08-30T09:49:25;4.32;;;2.28;;
10823;SDS011;39116;59.332;18.034;2023-08-30T09:51:48;4.30;;;1.90;;
10823;SDS011;39116;59.332;18.034;2023-08-30T09:54:14;2.38;;;2.00;;
10823;SDS011;39116;59.332;18.034;2023-08-30T09:56:38;3.15;;;2.05;;
10823;SDS011;39116;59.332;18.034;2023-08-30T09:59:00;2.50;;;2.05;;
10823;SDS011;39116;59.332;18.034;2023-08-30T10:01:25;2.78;;;2.33;;
10823;SDS011;39116;59.332;18.034;2023-08-30T10:03:49;2.25;;;2.05;;
10823;SDS011;39116;59.332;18.034;2023-08-30T10:06:12;3.22;;;1.90;;
10823;SDS011;39116;59.332;18.034;2023-08-30T10:08:35;3.90;;;2.42;;
10823;SDS011;39116;59.332;18.034;2023-08-30T10:10:59;3.25;;;2.10;;
10823;SDS011;39116;59.332;18.034;2023-08-30T10:13:21;2.17;;;1.98;;
10823;SDS011;39116;59.332;18.034;2023-08-30T10:15:45;2.70;;;2.00;;
10823;SDS011;39116;59.332;18.034;2023-08-30T10:18:11;6.25;;;3.22;;
10823;SDS011;39116;59.332;18.034;2023-08-30T10:20:38;10.77;;;4.65;;
10823;SDS011;39116;59.332;18.034;2023-08-30T10:23:00;4.07;;;3.03;;
10823;SDS011;39116;59.332;18.034;2023-08-30T10:25:24;3.08;;;2.75;;
10823;SDS011;39116;59.332;18.034;2023-08-30T10:27:51;8.90;;;5.78;;
10823;SDS011;39116;59.332;18.034;2023-08-30T10:30:14;6.45;;;3.30;;
10823;SDS011;39116;59.332;18.034;2023-08-30T10:32:38;2.97;;;2.28;;
10823;SDS011;39116;59.332;18.034;2023-08-30T10:35:01;3.22;;;1.98;;
10823;SDS011;39116;59.332;18.034;2023-08-30T10:37:25;2.22;;;1.83;;
10823;SDS011;39116;59.332;18.034;2023-08-30T10:39:48;1.95;;;1.80;;
10823;SDS011;39116;59.332;18.034;2023-08-30T10:42:10;2.20;;;1.70;;
10823;SDS011;39116;59.332;18.034;2023-08-30T10:44:33;2.70;;;1.70;;
10823;SDS011;39116;59.332;18.034;2023-08-30T10:46:55;2.03;;;1.90;;
10823;SDS011;39116;59.332;18.034;2023-08-30T10:49:18;1.92;;;1.67;;
10823;SDS011;39116;59.332;18.034;2023-08-30T10:51:40;2.90;;;1.65;;
10823;SDS011;39116;59.332;18.034;2023-08-30T10:54:13;3.10;;;1.60;;
10823;SDS011;39116;59.332;18.034;2023-08-30T10:56:44;1.65;;;1.55;;
10823;SDS011;39116;59.332;18.034;2023-08-30T10:59:15;2.10;;;1.63;;
10823;SDS011;39116;59.332;18.034;2023-08-30T11:01:37;2.33;;;1.50;;
10823;SDS011;39116;59.332;18.034;2023-08-30T11:04:00;2.92;;;2.00;;
10823;SDS011;39116;59.332;18.034;2023-08-30T11:06:22;2.65;;;2.22;;
10823;SDS011;39116;59.332;18.034;2023-08-30T11:08:44;2.42;;;1.83;;
10823;SDS011;39116;59.332;18.034;2023-08-30T11:11:10;4.50;;;2.90;;
10823;SDS011;39116;59.332;18.034;2023-08-30T11:13:34;2.92;;;1.95;;
10823;SDS011;39116;59.332;18.034;2023-08-30T11:15:59;2.63;;;1.67;;
10823;SDS011;39116;59.332;18.034;2023-08-30T11:18:22;2.25;;;1.52;;
10823;SDS011;39116;59.332;18.034;2023-08-30T11:20:44;2.50;;;1.60;;
10823;SDS011;39116;59.332;18.034;2023-08-30T11:23:06;3.22;;;1.70;;
10823;SDS011;39116;59.332;18.034;2023-08-30T11:25:28;4.18;;;2.20;;
10823;SDS011;39116;59.332;18.034;2023-08-30T11:27:52;3.75;;;1.95;;
10823;SDS011;39116;59.332;18.034;2023-08-30T11:30:23;2.63;;;1.95;;
10823;SDS011;39116;59.332;18.034;2023-08-30T11:32:45;4.45;;;2.35;;
10823;SDS011;39116;59.332;18.034;2023-08-30T11:35:07;5.95;;;3.58;;
10823;SDS011;39116;59.332;18.034;2023-08-30T11:37:30;1.65;;;1.40;;
10823;SDS011;39116;59.332;18.034;2023-08-30T11:39:52;2.05;;;1.67;;
10823;SDS011;39116;59.332;18.034;2023-08-30T11:42:14;5.93;;;3.88;;
10823;SDS011;39116;59.332;18.034;2023-08-30T11:44:37;6.90;;;4.22;;
10823;SDS011;39116;59.332;18.034;2023-08-30T11:47:00;5.07;;;3.25;;
10823;SDS011;39116;59.332;18.034;2023-08-30T11:49:22;4.97;;;3.15;;
10823;SDS011;39116;59.332;18.034;2023-08-30T11:51:44;1.42;;;1.33;;
10823;SDS011;39116;59.332;18.034;2023-08-30T11:54:07;4.60;;;2.85;;
10823;SDS011;39116;59.332;18.034;2023-08-30T11:56:30;2.50;;;2.10;;
10823;SDS011;39116;59.332;18.034;2023-08-30T11:58:52;3.45;;;2.00;;
10823;SDS011;39116;59.332;18.034;2023-08-30T12:01:15;5.75;;;3.35;;
10823;SDS011;39116;59.332;18.034;2023-08-30T12:03:39;4.28;;;2.70;;
10823;SDS011;39116;59.332;18.034;2023-08-30T12:06:01;2.63;;;1.70;;
10823;SDS011;39116;59.332;18.034;2023-08-30T12:08:24;2.80;;;2.00;;
10823;SDS011;39116;59.332;18.034;2023-08-30T12:10:46;2.28;;;1.77;;
10823;SDS011;39116;59.332;18.034;2023-08-30T12:13:08;2.70;;;2.40;;
10823;SDS011;39116;59.332;18.034;2023-08-30T12:15:41;3.88;;;2.17;;
10823;SDS011;39116;59.332;18.034;2023-08-30T12:18:09;3.85;;;2.83;;
10823;SDS011;39116;59.332;18.034;2023-08-30T12:20:31;3.28;;;2.05;;
10823;SDS011;39116;59.332;18.034;2023-08-30T12:22:53;2.88;;;2.00;;
10823;SDS011;39116;59.332;18.034;2023-08-30T12:25:15;5.43;;;2.97;;
10823;SDS011;39116;59.332;18.034;2023-08-30T12:27:39;5.10;;;3.13;;
10823;SDS011;39116;59.332;18.034;2023-08-30T12:30:01;4.40;;;2.45;;
10823;SDS011;39116;59.332;18.034;2023-08-30T12:32:23;2.47;;;2.25;;
10823;SDS011;39116;59.332;18.034;2023-08-30T12:34:47;4.50;;;2.22;;
10823;SDS011;39116;59.332;18.034;2023-08-30T12:37:09;2.28;;;1.80;;
10823;SDS011;39116;59.332;18.034;2023-08-30T12:39:31;2.15;;;1.85;;
10823;SDS011;39116;59.332;18.034;2023-08-30T12:41:53;5.13;;;2.40;;
10823;SDS011;39116;59.332;18.034;2023-08-30T12:44:14;2.33;;;1.70;;
10823;SDS011;39116;59.332;18.034;2023-08-30T12:46:36;3.65;;;2.03;;
10823;SDS011;39116;59.332;18.034;2023-08-30T12:48:58;5.10;;;1.88;;
10823;SDS011;39116;59.332;18.034;2023-08-30T12:51:22;4.60;;;1.70;;
10823;SDS011;39116;59.332;18.034;2023-08-30T12:53:44;4.03;;;2.50;;
10823;SDS011;39116;59.332;18.034;2023-08-30T12:56:06;4.88;;;2.33;;
10823;SDS011;39116;59.332;18.034;2023-08-30T12:58:28;5.13;;;1.90;;
10823;SDS011;39116;59.332;18.034;2023-08-30T13:00:49;1.85;;;1.65;;
10823;SDS011;39116;59.332;18.034;2023-08-30T13:03:11;1.50;;;1.40;;
10823;SDS011;39116;59.332;18.034;2023-08-30T13:05:33;3.42;;;1.40;;
10823;SDS011;39116;59.332;18.034;2023-08-30T13:07:57;3.25;;;1.42;;
10823;SDS011;39116;59.332;18.034;2023-08-30T13:10:19;2.72;;;1.58;;
10823;SDS011;39116;59.332;18.034;2023-08-30T13:12:41;2.60;;;1.25;;
10823;SDS011;39116;59.332;18.034;2023-08-30T13:15:04;1.77;;;1.27;;
10823;SDS011;39116;59.332;18.034;2023-08-30T13:17:27;2.70;;;1.45;;
10823;SDS011;39116;59.332;18.034;2023-08-30T13:19:49;2.20;;;1.48;;
10823;SDS011;39116;59.332;18.034;2023-08-30T13:22:11;1.55;;;1.30;;
10823;SDS011;39116;59.332;18.034;2023-08-30T13:24:34;1.83;;;1.25;;
10823;SDS011;39116;59.332;18.034;2023-08-30T13:26:56;1.40;;;1.30;;
10823;SDS011;39116;59.332;18.034;2023-08-30T13:29:18;1.83;;;1.48;;
10823;SDS011;39116;59.332;18.034;2023-08-30T13:31:40;1.42;;;1.33;;
10823;SDS011;39116;59.332;18.034;2023-08-30T13:34:02;3.63;;;1.20;;
10823;SDS011;39116;59.332;18.034;2023-08-30T13:36:24;2.55;;;1.42;;
10823;SDS011;39116;59.332;18.034;2023-08-30T13:38:46;1.30;;;1.20;;
10823;SDS011;39116;59.332;18.034;2023-08-30T13:41:10;2.30;;;1.27;;
10823;SDS011;39116;59.332;18.034;2023-08-30T13:43:32;1.58;;;1.23;;
10823;SDS011;39116;59.332;18.034;2023-08-30T13:45:57;3.28;;;1.35;;
10823;SDS011;39116;59.332;18.034;2023-08-30T13:48:19;1.38;;;1.27;;
10823;SDS011;39116;59.332;18.034;2023-08-30T13:50:41;3.25;;;1.35;;
10823;SDS011;39116;59.332;18.034;2023-08-30T13:53:03;1.30;;;1.10;;
10823;SDS011;39116;59.332;18.034;2023-08-30T13:55:25;1.15;;;1.05;;
10823;SDS011;39116;59.332;18.034;2023-08-30T13:57:48;1.33;;;1.20;;
10823;SDS011;39116;59.332;18.034;2023-08-30T14:00:11;1.95;;;1.35;;
10823;SDS011;39116;59.332;18.034;2023-08-30T14:02:33;2.13;;;1.42;;
10823;SDS011;39116;59.332;18.034;2023-08-30T14:04:55;1.73;;;1.10;;
10823;SDS011;39116;59.332;18.034;2023-08-30T14:07:17;1.38;;;1.10;;